Accueil
METAR-TAF:

METAR-TAF

Aéroports :

Afyonkarahisar, Turquie

latitude: 38-45N, longitude: 030-32E, altitude: 1034 m

Observation

Le bulletin a été fait il y a 5 heures et 5 minutes, à 08:17 UTC
Vent 2 kt de direction variable
Température 5°C
Humidité 93%
Pression 1008 hPa
Visibilité: 8000 m
Nuages épars à une hauteur de 3000 ft
Nuages fragmentés à une hauteur de 9000 ft
pluie faible

METAR: LTAH 120817Z VRB02KT 8000 -RA SCT030 BKN090 05/04 Q1008 RMK RWY13 19004KT 160V220

Heure: 16:22 (13:22 UTC)

Prévision

Le bulletin a été fait il y a 2 heures et 42 minutes, à 10:40 UTC
Prévision valable du 12 à 12 UTC au 12 à 21 UTC
Vent 8 kt de sud-est
Visibilité: 6000 m
Nuages épars à une hauteur de 1200 ft
Ciel couvert à une hauteur de 2500 ft
pluie faible
Temporairement
du 12 à 12 UTC au 12 à 16 UTC
Visibilité: 2000 m
brume

TAF: LTAH 121040Z 1212/1221 13008KT 6000 -RA SCT012 OVC025 TEMPO 1212/1216 2000 BR

Observations et prévisions météorologiques de plus de 4000 aéroports (messages METAR et TAF).

Les stations disponibles sont représentées par des disques jaunes et rouges sur la carte.

Passer la souris dessus pour voir le nom de la station.

Cliquer dessus pour voir les observations et prévisions météorologiques.

Pour changer de carte: cliquez sur les boutons verts avec une croix noire pour zoomer, sur le bouton vert avec un tiret pour effectuer un zoom arrière, ou sur les flèches vertes pour les cartes adjacentes.


METAR-TAF: